Time;durP1;ratioP1;P1;durP2;ratioP2;P2;SDS_P1;SDS_P2;PMS_P1;PMS_P2;Temp;Humidity;BMP_temperature;BMP_pressure;BME280_temperature;BME280_humidity;BME280_pressure;Samples;Min_cycle;Max_cycle;Signal;HPM_P1;HPM_P2
2021/12/17 00:05:01;;;;;;;55.90;13.85;;;;;;;8.52;99.07;103762.94;4998503;28;20050;-73
2021/12/17 00:07:29;;;;;;;63.60;16.42;;;;;;;8.53;99.41;103759.44;5007997;28;20046;-72
2021/12/17 00:09:58;;;;;;;89.63;13.75;;;;;;;8.58;99.41;103770.66;4998324;28;20108;-72
2021/12/17 00:12:26;;;;;;;48.85;14.18;;;;;;;8.54;99.65;103765.53;4995346;28;20049;-71
2021/12/17 00:14:56;;;;;;;67.10;15.25;;;;;;;8.53;99.92;103769.06;4995718;28;20050;-75
2021/12/17 00:17:28;;;;;;;58.45;14.73;;;;;;;8.54;99.12;103766.41;4996365;28;20460;-73
2021/12/17 00:20:21;;;;;;;65.60;14.23;;;;;;;8.58;99.71;103773.28;4977037;28;20060;-74
2021/12/17 00:50:56;;;;;;;63.53;13.90;;;;;;;8.37;99.35;103752.81;4994278;28;20042;-73
2021/12/17 00:53:26;;;;;;;76.82;12.15;;;;;;;8.42;99.79;103744.88;5002252;28;20041;-74
2021/12/17 00:55:53;;;;;;;142.50;17.33;;;;;;;8.37;99.00;103738.88;4981570;28;20045;-73
2021/12/17 00:58:19;;;;;;;90.05;20.83;;;;;;;8.30;99.39;103739.88;5006555;28;20073;-74
2021/12/17 01:00:49;;;;;;;86.55;14.73;;;;;;;8.32;99.37;103741.59;5014197;28;20088;-73
2021/12/17 01:03:17;;;;;;;77.00;13.25;;;;;;;8.28;99.17;103739.94;5003188;28;20068;-73
2021/12/17 01:05:44;;;;;;;87.03;14.40;;;;;;;8.25;99.50;103742.59;5018272;28;20080;-73
2021/12/17 01:08:11;;;;;;;62.55;12.18;;;;;;;8.22;98.91;103741.81;4999306;28;20062;-73
2021/12/17 01:10:41;;;;;;;74.15;14.02;;;;;;;8.25;99.20;103732.13;5010946;28;20045;-72
2021/12/17 01:13:08;;;;;;;78.70;11.88;;;;;;;8.29;99.53;103732.97;5001021;28;20046;-72
2021/12/17 01:15:37;;;;;;;65.95;12.52;;;;;;;8.21;99.50;103733.13;5011739;28;20391;-73
2021/12/17 01:18:09;;;;;;;38.10;13.27;;;;;;;8.18;99.81;103729.69;4997721;28;20065;-72
2021/12/17 01:21:04;;;;;;;81.72;13.95;;;;;;;8.25;98.93;103731.28;4999822;28;20048;-73
2021/12/17 01:24:01;;;;;;;74.10;15.10;;;;;;;8.19;99.17;103732.28;4997143;28;20126;-72
2021/12/17 01:38:10;;;;;;;99.25;14.50;;;;;;;8.02;99.50;103726.50;4996728;28;20168;-72
2021/12/17 01:40:57;;;;;;;95.63;16.33;;;;;;;8.01;100.00;103727.41;4999164;28;20149;-73
2021/12/17 01:43:26;;;;;;;96.53;14.27;;;;;;;8.06;100.00;103733.41;4998171;28;20046;-71
2021/12/17 01:45:53;;;;;;;48.03;12.85;;;;;;;8.01;99.98;103721.31;4999473;28;20061;-73
2021/12/17 01:48:26;;;;;;;34.30;11.15;;;;;;;7.96;100.00;103729.28;5004780;28;20057;-73
2021/12/17 01:56:38;;;;;;;64.97;12.30;;;;;;;7.97;99.87;103720.53;5001886;28;20154;-74
2021/12/17 01:59:21;;;;;;;70.35;13.57;;;;;;;7.96;100.00;103723.19;5010367;28;20046;-71
2021/12/17 02:01:48;;;;;;;67.20;11.07;;;;;;;7.95;100.00;103722.31;5014630;28;20057;-72
2021/12/17 02:04:14;;;;;;;77.43;14.05;;;;;;;7.86;100.00;103720.75;5005546;28;20058;-73
2021/12/17 02:06:41;;;;;;;72.53;13.52;;;;;;;7.84;100.00;103733.06;4999192;28;20093;-72
2021/12/17 02:09:35;;;;;;;80.80;13.82;;;;;;;7.89;99.85;103731.19;5002843;28;20050;-72
2021/12/17 02:20:39;;;;;;;55.70;11.75;;;;;;;7.81;100.00;103738.34;5012584;28;20108;-72
2021/12/17 02:28:43;;;;;;;69.05;14.32;;;;;;;7.84;100.00;103728.66;4998382;28;20053;-72
2021/12/17 02:29:04;;;;;;;96.20;13.90;;;;;;;7.85;100.00;103739.97;5002038;28;20056;-71
2021/12/17 02:31:33;;;;;;;57.38;13.00;;;;;;;7.83;100.00;103736.56;4999074;28;20335;-71
2021/12/17 02:34:19;;;;;;;38.63;12.30;;;;;;;7.79;100.00;103734.88;4997951;28;20064;-72
2021/12/17 02:36:48;;;;;;;31.30;11.40;;;;;;;7.83;100.00;103731.31;5008886;28;20046;-71
2021/12/17 02:39:54;;;;;;;89.85;11.52;;;;;;;7.82;100.00;103734.81;4998830;28;20041;-73
2021/12/17 02:42:37;;;;;;;83.05;13.25;;;;;;;7.79;99.94;103737.50;4987817;28;20049;-74
2021/12/17 02:47:59;;;;;;;37.03;12.52;;;;;;;7.80;100.00;103747.91;4993115;28;20065;-72
2021/12/17 02:50:26;;;;;;;59.15;11.55;;;;;;;7.75;100.00;103748.94;5000938;28;20053;-73
2021/12/17 02:52:56;;;;;;;36.63;10.38;;;;;;;7.78;100.00;103751.47;4994196;28;20037;-72
2021/12/17 02:55:23;;;;;;;49.67;13.50;;;;;;;7.72;100.00;103755.06;4999707;28;20603;-74
2021/12/17 02:57:50;;;;;;;50.55;12.82;;;;;;;7.71;99.92;103757.72;5001961;28;20165;-73
2021/12/17 03:00:18;;;;;;;44.85;11.45;;;;;;;7.70;99.98;103756.00;4981649;28;20564;-72
2021/12/17 03:02:46;;;;;;;41.10;12.98;;;;;;;7.72;100.00;103754.22;5001352;28;20038;-72
2021/12/17 03:05:12;;;;;;;45.50;13.57;;;;;;;7.75;100.00;103755.00;4984868;28;20074;-73
2021/12/17 03:07:43;;;;;;;37.13;12.27;;;;;;;7.73;100.00;103756.78;5008209;28;20788;-72
2021/12/17 03:10:12;;;;;;;103.78;12.98;;;;;;;7.65;100.00;103755.22;5007805;28;20798;-74
2021/12/17 03:12:44;;;;;;;43.75;10.05;;;;;;;7.58;99.73;103753.63;5003053;28;20049;-71
2021/12/17 03:15:20;;;;;;;51.25;12.48;;;;;;;7.63;100.00;103759.63;4995969;28;20476;-72
2021/12/17 03:23:39;;;;;;;44.42;11.00;;;;;;;7.62;100.00;103752.66;4922474;29;20095;-72
2021/12/17 03:26:13;;;;;;;66.07;11.18;;;;;;;7.61;100.00;103754.44;4981748;28;20196;-72
2021/12/17 03:28:42;;;;;;;71.28;13.50;;;;;;;7.61;100.00;103751.81;5000918;28;20049;-74
2021/12/17 03:31:12;;;;;;;43.92;11.50;;;;;;;7.63;100.00;103754.38;4998775;28;20038;-72
2021/12/17 03:33:44;;;;;;;76.20;11.25;;;;;;;7.61;100.00;103750.94;5009200;28;20047;-73
2021/12/17 03:36:11;;;;;;;44.30;12.68;;;;;;;7.63;100.00;103749.16;5022395;28;20069;-72
2021/12/17 03:38:39;;;;;;;46.17;12.82;;;;;;;7.68;100.00;103750.81;5034228;28;20049;-73
2021/12/17 03:41:17;;;;;;;36.10;10.48;;;;;;;7.70;100.00;103751.63;4993012;28;20133;-72
2021/12/17 03:43:46;;;;;;;51.33;12.07;;;;;;;7.69;100.00;103741.19;4996934;28;20048;-73
2021/12/17 03:46:12;;;;;;;57.55;12.20;;;;;;;7.72;100.00;103741.13;4998440;28;20057;-72
2021/12/17 03:48:40;;;;;;;38.08;11.02;;;;;;;7.66;100.00;103728.19;4994982;28;20160;-74
2021/12/17 03:51:12;;;;;;;62.85;11.13;;;;;;;7.58;100.00;103740.56;4982760;28;20041;-72
2021/12/17 03:53:39;;;;;;;35.13;12.35;;;;;;;7.55;100.00;103736.22;4995794;28;20139;-73
2021/12/17 03:56:08;;;;;;;95.72;13.93;;;;;;;7.55;100.00;103735.38;5013539;28;20045;-75
2021/12/17 03:58:34;;;;;;;40.47;11.93;;;;;;;7.55;100.00;103738.81;4996486;28;20546;-72
2021/12/17 04:01:03;;;;;;;73.13;12.02;;;;;;;7.56;100.00;103737.09;4997145;28;20046;-73
2021/12/17 04:03:31;;;;;;;86.13;12.88;;;;;;;7.53;100.00;103742.38;4998172;28;20684;-74
2021/12/17 04:05:57;;;;;;;95.47;12.18;;;;;;;7.51;100.00;103746.78;4996182;28;20068;-74
2021/12/17 04:08:24;;;;;;;51.10;11.77;;;;;;;7.44;100.00;103742.53;4998143;28;20058;-74
2021/12/17 04:10:54;;;;;;;60.38;12.07;;;;;;;7.45;100.00;103739.03;4996470;28;20042;-75
2021/12/17 04:13:30;;;;;;;77.80;12.98;;;;;;;7.55;100.00;103740.59;4997627;28;20042;-73
2021/12/17 04:16:04;;;;;;;122.32;14.38;;;;;;;7.49;100.00;103738.09;4993174;28;20046;-72
2021/12/17 04:18:33;;;;;;;92.03;13.80;;;;;;;7.42;100.00;103736.50;5000807;28;20060;-72
2021/12/17 04:21:02;;;;;;;132.55;15.75;;;;;;;7.38;100.00;103742.66;4998280;28;20045;-72
2021/12/17 04:23:31;;;;;;;87.22;13.35;;;;;;;7.35;100.00;103738.38;4997857;28;20153;-72
2021/12/17 04:25:58;;;;;;;66.68;14.05;;;;;;;7.34;100.00;103738.41;4997565;28;20061;-74
2021/12/17 04:28:25;;;;;;;66.43;13.23;;;;;;;7.31;100.00;103739.28;5005192;28;20064;-73
2021/12/17 04:30:54;;;;;;;50.60;13.43;;;;;;;7.31;100.00;103733.22;4995955;28;20061;-72
2021/12/17 04:33:20;;;;;;;73.63;12.77;;;;;;;7.30;100.00;103731.47;4992727;28;20057;-73
2021/12/17 04:35:49;;;;;;;62.00;15.15;;;;;;;7.31;100.00;103741.06;5000823;28;20048;-72
2021/12/17 04:38:16;;;;;;;59.90;13.70;;;;;;;7.33;100.00;103740.13;4999430;28;20128;-72
2021/12/17 04:40:44;;;;;;;100.95;15.60;;;;;;;7.31;100.00;103731.44;4996989;28;20042;-73
2021/12/17 04:43:32;;;;;;;41.35;12.68;;;;;;;7.38;100.00;103730.47;4998218;28;20038;-72
2021/12/17 04:46:12;;;;;;;57.42;12.10;;;;;;;7.37;100.00;103739.22;4999430;28;20108;-74
2021/12/17 04:59:38;;;;;;;42.92;10.43;;;;;;;7.43;100.00;103748.66;5001181;28;20120;-72
2021/12/17 05:02:05;;;;;;;55.53;14.43;;;;;;;7.41;100.00;103743.47;4971580;28;20154;-72
2021/12/17 05:04:37;;;;;;;74.97;13.20;;;;;;;7.40;100.00;103749.59;4980852;28;20108;-74
2021/12/17 05:07:07;;;;;;;55.63;12.27;;;;;;;7.48;100.00;103749.47;4998197;28;20112;-72
2021/12/17 05:09:41;;;;;;;83.07;13.43;;;;;;;7.46;100.00;103744.25;4978582;28;20050;-72
2021/12/17 05:20:31;;;;;;;81.65;13.00;;;;;;;7.54;100.00;103738.88;4994109;28;20049;-71
2021/12/17 05:23:00;;;;;;;95.72;11.73;;;;;;;7.53;100.00;103742.38;5008912;28;20052;-71
2021/12/17 05:25:29;;;;;;;63.58;12.07;;;;;;;7.50;100.00;103739.84;4993932;28;20100;-73
2021/12/17 05:28:00;;;;;;;77.97;12.60;;;;;;;7.48;100.00;103742.47;4999093;28;20427;-73
2021/12/17 05:30:27;;;;;;;79.13;13.40;;;;;;;7.51;100.00;103746.78;4992805;28;20048;-74
2021/12/17 05:32:53;;;;;;;34.28;9.40;;;;;;;7.57;100.00;103744.06;4997365;28;20044;-74
2021/12/17 05:35:20;;;;;;;38.22;11.23;;;;;;;7.56;100.00;103745.78;5008590;28;20053;-73
2021/12/17 05:37:47;;;;;;;64.57;13.27;;;;;;;7.56;100.00;103737.09;4983030;28;20049;-74
2021/12/17 05:40:15;;;;;;;58.45;13.32;;;;;;;7.51;100.00;103737.19;4989713;28;20069;-72
2021/12/17 05:42:43;;;;;;;43.55;12.52;;;;;;;7.46;100.00;103741.66;4995205;28;20045;-74
2021/12/17 05:45:21;;;;;;;64.45;12.18;;;;;;;7.52;100.00;103738.03;4992209;28;20504;-75
2021/12/17 05:47:51;;;;;;;85.03;13.82;;;;;;;7.53;100.00;103738.03;4982514;28;20049;-72
2021/12/17 05:50:17;;;;;;;47.90;13.55;;;;;;;7.55;100.00;103735.38;4999093;28;20046;-73
2021/12/17 05:52:46;;;;;;;49.45;12.35;;;;;;;7.49;100.00;103735.50;4999044;28;20088;-72
2021/12/17 05:55:12;;;;;;;63.10;12.75;;;;;;;7.51;100.00;103739.78;4994188;28;20038;-72
2021/12/17 05:57:40;;;;;;;47.08;11.88;;;;;;;7.54;100.00;103742.38;4997484;28;20471;-72
2021/12/17 06:00:09;;;;;;;35.58;13.05;;;;;;;7.51;100.00;103744.19;5004610;28;20546;-72
2021/12/17 06:02:35;;;;;;;41.42;11.98;;;;;;;7.45;100.00;103749.50;4998408;28;20492;-73
2021/12/17 06:05:02;;;;;;;55.20;11.05;;;;;;;7.40;100.00;103752.19;4995583;28;20050;-74
2021/12/17 06:07:30;;;;;;;41.00;9.35;;;;;;;7.43;100.00;103748.66;4997967;28;20116;-73
2021/12/17 06:09:59;;;;;;;41.88;12.45;;;;;;;7.46;100.00;103761.69;4998362;28;20519;-72
2021/12/17 06:12:26;;;;;;;50.63;13.18;;;;;;;7.41;100.00;103758.31;5019324;28;20038;-73
2021/12/17 06:14:54;;;;;;;35.35;9.90;;;;;;;7.34;100.00;103770.63;4995295;28;20054;-71
2021/12/17 06:17:21;;;;;;;44.05;11.02;;;;;;;7.34;100.00;103768.00;5014087;28;20054;-72
2021/12/17 06:19:47;;;;;;;68.43;14.45;;;;;;;7.33;100.00;103766.28;4996249;28;20547;-75
2021/12/17 06:22:18;;;;;;;43.22;11.57;;;;;;;7.41;100.00;103768.78;4996159;28;20100;-73
2021/12/17 06:24:45;;;;;;;42.42;11.63;;;;;;;7.39;100.00;103771.41;5010402;28;20137;-71
2021/12/17 06:27:17;;;;;;;55.10;12.38;;;;;;;7.40;100.00;103780.97;4997021;28;20038;-75
2021/12/17 06:29:44;;;;;;;43.85;11.95;;;;;;;7.40;100.00;103774.88;4992692;28;20056;-72
2021/12/17 06:32:15;;;;;;;48.60;11.82;;;;;;;7.42;100.00;103765.28;5006424;28;20044;-70
2021/12/17 06:34:42;;;;;;;45.28;10.63;;;;;;;7.42;100.00;103767.88;4973768;28;20088;-72
2021/12/17 06:37:11;;;;;;;45.92;11.80;;;;;;;7.45;100.00;103760.84;4996017;28;20030;-72
2021/12/17 06:39:40;;;;;;;49.50;9.77;;;;;;;7.48;100.00;103758.16;4992992;28;20046;-73
2021/12/17 06:42:11;;;;;;;34.95;10.75;;;;;;;7.43;100.00;103770.47;5014461;28;20044;-72
2021/12/17 06:44:38;;;;;;;48.53;11.00;;;;;;;7.41;100.00;103767.00;4997491;28;20449;-72
2021/12/17 06:47:09;;;;;;;40.28;10.27;;;;;;;7.51;100.00;103762.50;5003601;28;20041;-71
2021/12/17 06:49:54;;;;;;;52.10;12.02;;;;;;;7.51;100.00;103754.63;4978675;28;20609;-71
2021/12/17 06:55:18;;;;;;;34.00;9.18;;;;;;;7.57;100.00;103749.28;4999922;28;20042;-71
2021/12/17 06:58:31;;;;;;;43.15;11.57;;;;;;;7.52;100.00;103756.34;5001385;28;20057;-69
2021/12/17 07:01:05;;;;;;;53.05;9.02;;;;;;;7.49;100.00;103752.03;4998523;28;20124;-71
2021/12/17 07:06:33;;;;;;;37.08;11.27;;;;;;;7.51;100.00;103746.78;5000330;28;20054;-69
2021/12/17 07:17:07;;;;;;;40.83;9.60;;;;;;;7.47;100.00;103760.81;4997926;28;20124;-69
2021/12/17 07:17:27;;;;;;;32.35;8.15;;;;;;;7.50;100.00;103760.75;4977090;28;20042;-70
2021/12/17 07:22:50;;;;;;;44.20;11.13;;;;;;;7.53;100.00;103766.78;4999408;28;20041;-70
2021/12/17 07:33:37;;;;;;;45.97;12.18;;;;;;;7.58;100.00;103758.88;4963723;28;20054;-71
2021/12/17 07:36:10;;;;;;;61.95;12.40;;;;;;;7.64;100.00;103763.97;5000176;28;20038;-69
2021/12/17 07:38:39;;;;;;;46.28;8.82;;;;;;;7.64;100.00;103761.34;4997891;28;20045;-73
2021/12/17 07:41:07;;;;;;;38.70;10.50;;;;;;;7.62;99.87;103753.53;5000791;28;20070;-72
2021/12/17 07:43:39;;;;;;;63.22;13.68;;;;;;;7.62;100.00;103752.66;5000557;28;20089;-71
2021/12/17 07:46:08;;;;;;;50.25;10.80;;;;;;;7.66;100.00;103764.81;4967995;28;20045;-71
2021/12/17 07:48:35;;;;;;;48.80;12.15;;;;;;;7.71;100.00;103762.94;4979431;28;20046;-72
2021/12/17 07:51:04;;;;;;;34.78;8.93;;;;;;;7.63;100.00;103759.63;4999548;28;20042;-71
2021/12/17 07:53:31;;;;;;;53.63;10.30;;;;;;;7.61;100.00;103758.78;4977044;28;20089;-70
2021/12/17 07:56:00;;;;;;;48.38;10.52;;;;;;;7.66;100.00;103765.66;5000598;28;20053;-72
2021/12/17 07:58:28;;;;;;;41.40;10.60;;;;;;;7.67;100.00;103763.91;4990372;28;20058;-70
2021/12/17 08:00:55;;;;;;;40.70;10.60;;;;;;;7.72;100.00;103764.69;4994169;28;20042;-70
2021/12/17 08:03:22;;;;;;;47.17;9.85;;;;;;;7.73;100.00;103761.19;4991924;28;20084;-69
2021/12/17 08:05:49;;;;;;;31.33;8.40;;;;;;;7.77;100.00;103758.47;4997893;28;20049;-73
2021/12/17 08:08:16;;;;;;;43.13;11.20;;;;;;;7.80;99.94;103755.78;5000783;28;20691;-74
2021/12/17 08:10:43;;;;;;;41.40;11.00;;;;;;;7.82;99.97;103764.47;4998793;28;20362;-72
2021/12/17 08:13:18;;;;;;;42.13;10.13;;;;;;;7.78;99.77;103767.16;4999833;28;20049;-73
2021/12/17 08:15:51;;;;;;;44.70;9.68;;;;;;;7.69;100.00;103767.34;4992896;28;20089;-73
2021/12/17 08:26:42;;;;;;;47.83;11.60;;;;;;;7.62;99.96;103773.59;4957823;28;20038;-73
2021/12/17 08:29:27;;;;;;;48.45;11.93;;;;;;;7.58;100.00;103778.03;5001496;28;20050;-73
2021/12/17 08:32:00;;;;;;;47.13;10.63;;;;;;;7.66;100.00;103783.13;4998716;28;20046;-72
2021/12/17 08:34:27;;;;;;;60.03;10.75;;;;;;;7.69;100.00;103783.03;4999545;28;20052;-72
2021/12/17 08:36:53;;;;;;;43.45;9.85;;;;;;;7.64;100.00;103790.13;5002179;28;20084;-73
2021/12/17 08:39:21;;;;;;;50.25;10.35;;;;;;;7.61;100.00;103787.56;4988215;28;20044;-73
2021/12/17 08:41:51;;;;;;;40.08;10.43;;;;;;;7.59;100.00;103802.44;5004074;28;20039;-72
2021/12/17 08:44:24;;;;;;;43.65;10.73;;;;;;;7.57;100.00;103796.38;5019265;28;20056;-73
2021/12/17 08:46:52;;;;;;;65.45;12.07;;;;;;;7.58;100.00;103803.34;5021435;28;20026;-73
2021/12/17 08:49:18;;;;;;;60.75;11.85;;;;;;;7.60;100.00;103801.53;5013635;28;20076;-71
2021/12/17 08:51:48;;;;;;;51.78;12.35;;;;;;;7.58;100.00;103809.41;5015656;28;20041;-73
2021/12/17 08:54:16;;;;;;;50.22;12.27;;;;;;;7.59;100.00;103812.91;4996513;28;20488;-72
2021/12/17 08:56:44;;;;;;;50.88;10.82;;;;;;;7.60;100.00;103809.38;4999043;28;20069;-73
2021/12/17 08:59:13;;;;;;;52.08;11.75;;;;;;;7.61;100.00;103818.94;4997528;28;20143;-73
2021/12/17 09:01:42;;;;;;;57.58;11.63;;;;;;;7.58;100.00;103824.25;4988452;28;20050;-73
2021/12/17 09:04:08;;;;;;;59.95;10.32;;;;;;;7.63;100.00;103827.66;4995426;28;20053;-73
2021/12/17 09:06:35;;;;;;;58.60;11.70;;;;;;;7.65;100.00;103825.88;5002158;28;20069;-72
2021/12/17 09:09:03;;;;;;;65.30;12.90;;;;;;;7.69;100.00;103832.75;5002720;28;20030;-72
2021/12/17 09:11:30;;;;;;;37.78;9.40;;;;;;;7.70;100.00;103818.78;5004536;28;20504;-72
2021/12/17 09:13:59;;;;;;;54.92;12.40;;;;;;;7.73;100.00;103814.34;4999791;28;20042;-73
2021/12/17 09:16:29;;;;;;;45.05;10.30;;;;;;;7.77;100.00;103823.00;5002462;28;20074;-74
2021/12/17 09:18:57;;;;;;;48.67;8.57;;;;;;;7.81;100.00;103819.47;4990648;28;20057;-72
2021/12/17 09:21:24;;;;;;;42.13;9.70;;;;;;;7.92;100.00;103814.88;5004886;28;20044;-72
2021/12/17 09:23:51;;;;;;;41.38;10.45;;;;;;;7.93;100.00;103821.81;5001130;28;20050;-72
2021/12/17 09:26:18;;;;;;;50.17;9.82;;;;;;;7.96;100.00;103807.78;4983029;28;20865;-73
2021/12/17 09:28:45;;;;;;;56.80;10.55;;;;;;;7.98;100.00;103816.50;4998679;28;20052;-74
2021/12/17 09:31:14;;;;;;;67.88;11.23;;;;;;;8.01;100.00;103816.41;4990096;28;20041;-72
2021/12/17 09:33:42;;;;;;;64.75;11.35;;;;;;;8.06;99.93;103819.81;4981828;28;20103;-73
2021/12/17 09:36:11;;;;;;;66.03;12.15;;;;;;;8.09;100.00;103822.34;5007101;28;20042;-72
2021/12/17 09:38:41;;;;;;;52.33;10.20;;;;;;;8.10;99.83;103824.06;4982234;28;20058;-72
2021/12/17 09:41:08;;;;;;;52.47;11.48;;;;;;;8.08;99.67;103823.25;4997590;28;20100;-74
2021/12/17 09:43:41;;;;;;;56.88;9.98;;;;;;;8.04;99.48;103829.44;4997119;28;20112;-73
2021/12/17 09:46:09;;;;;;;66.70;14.85;;;;;;;8.04;99.84;103820.75;5006732;28;20046;-73
2021/12/17 09:48:36;;;;;;;39.25;9.88;;;;;;;8.07;99.40;103826.78;4999049;28;20048;-73
2021/12/17 09:51:05;;;;;;;47.67;8.85;;;;;;;8.02;99.28;103826.00;4994291;28;20121;-74
2021/12/17 09:53:35;;;;;;;55.33;11.75;;;;;;;8.07;99.42;103824.16;5012251;28;20123;-73
2021/12/17 09:56:03;;;;;;;77.20;14.57;;;;;;;8.12;98.95;103831.94;4997008;28;20053;-72
2021/12/17 09:58:30;;;;;;;49.10;11.25;;;;;;;8.16;99.77;103834.47;4996037;28;20302;-73
2021/12/17 10:00:57;;;;;;;41.53;10.32;;;;;;;8.20;99.13;103830.88;4995795;28;20041;-74
2021/12/17 10:03:24;;;;;;;46.15;8.57;;;;;;;8.27;99.09;103837.72;4998893;28;20049;-74
2021/12/17 10:05:51;;;;;;;51.30;9.80;;;;;;;8.26;99.02;103843.84;4998248;28;20107;-73
2021/12/17 10:08:20;;;;;;;51.03;9.13;;;;;;;8.29;98.58;103838.56;4997063;28;20088;-72
2021/12/17 10:10:50;;;;;;;46.70;9.20;;;;;;;8.28;98.81;103844.69;4999145;28;20088;-73
2021/12/17 10:13:21;;;;;;;43.75;10.55;;;;;;;8.29;99.30;103851.66;4997448;28;20096;-72
2021/12/17 10:15:49;;;;;;;47.72;10.65;;;;;;;8.27;98.19;103855.22;4995023;28;20538;-73
2021/12/17 10:18:17;;;;;;;56.85;9.65;;;;;;;8.32;98.43;103854.22;4993602;28;20050;-72
2021/12/17 10:20:56;;;;;;;49.45;10.13;;;;;;;8.35;99.04;103855.91;4998567;28;20056;-73
2021/12/17 10:23:24;;;;;;;71.93;11.63;;;;;;;8.37;98.23;103851.50;5002165;28;20133;-73
2021/12/17 10:25:52;;;;;;;61.00;11.90;;;;;;;8.32;97.91;103854.22;5005508;28;20587;-74
2021/12/17 10:28:18;;;;;;;63.40;10.82;;;;;;;8.39;98.92;103845.34;4980655;28;20481;-74
2021/12/17 10:30:47;;;;;;;37.17;8.75;;;;;;;8.35;98.29;103848.91;5013291;28;20053;-74
2021/12/17 10:33:18;;;;;;;50.10;11.60;;;;;;;8.35;98.58;103848.91;5004864;28;20038;-73
2021/12/17 10:35:48;;;;;;;55.22;10.77;;;;;;;8.44;98.88;103846.09;4982572;28;20065;-73
2021/12/17 10:38:19;;;;;;;56.33;11.95;;;;;;;8.43;98.46;103848.75;5003108;28;20046;-73
2021/12/17 10:40:51;;;;;;;43.38;8.98;;;;;;;8.42;98.29;103847.88;5002132;28;20042;-73
2021/12/17 10:43:24;;;;;;;20.67;6.45;;;;;;;8.51;98.16;103855.53;4983174;28;20078;-72
2021/12/17 10:46:00;;;;;;;43.30;8.93;;;;;;;8.46;98.52;103852.16;5002154;28;20515;-72
2021/12/17 10:48:32;;;;;;;37.63;9.15;;;;;;;8.46;98.27;103852.16;5002188;28;20366;-72
2021/12/17 10:51:17;;;;;;;31.88;7.60;;;;;;;8.46;98.47;103841.69;5003488;28;20045;-73
2021/12/17 10:53:51;;;;;;;51.47;10.02;;;;;;;8.43;98.72;103838.28;5001361;28;20042;-73
2021/12/17 10:56:24;;;;;;;35.92;8.30;;;;;;;8.50;98.78;103842.50;5002185;28;20188;-72
2021/12/17 10:59:02;;;;;;;34.20;8.95;;;;;;;8.54;99.22;103839.78;5001744;28;20057;-72
2021/12/17 11:01:32;;;;;;;37.90;10.45;;;;;;;8.55;98.37;103838.00;5002567;28;20034;-72
2021/12/17 11:04:11;;;;;;;34.20;8.93;;;;;;;8.54;99.16;103833.66;5013169;28;20096;-72
2021/12/17 11:06:48;;;;;;;38.67;9.32;;;;;;;8.56;98.57;103832.75;5004191;28;20061;-73
2021/12/17 11:09:33;;;;;;;45.10;10.38;;;;;;;8.59;99.31;103835.28;5005307;28;20136;-74
2021/12/17 11:12:01;;;;;;;40.25;9.15;;;;;;;8.63;99.17;103828.22;5002788;28;20038;-73
2021/12/17 11:14:30;;;;;;;32.97;9.80;;;;;;;8.71;99.02;103840.25;5021527;28;20478;-73
2021/12/17 11:16:56;;;;;;;30.58;9.43;;;;;;;8.56;98.65;103832.75;5009681;28;20046;-73
2021/12/17 11:19:25;;;;;;;34.45;8.10;;;;;;;8.54;98.68;103834.53;5013347;28;20034;-73
2021/12/17 11:21:52;;;;;;;34.05;9.43;;;;;;;8.55;98.27;103825.78;5024578;28;20081;-72
2021/12/17 11:24:20;;;;;;;28.63;9.02;;;;;;;8.60;98.80;103837.00;4992499;28;20535;-74
2021/12/17 11:26:46;;;;;;;32.90;9.02;;;;;;;8.69;99.53;103835.97;5002780;28;20045;-73
2021/12/17 11:29:14;;;;;;;44.63;8.95;;;;;;;8.65;99.03;103826.41;4999402;28;20125;-73
2021/12/17 11:31:42;;;;;;;37.88;9.15;;;;;;;8.55;98.82;103836.25;5004430;28;20046;-72
2021/12/17 11:34:12;;;;;;;35.20;8.85;;;;;;;8.54;99.10;103837.16;5015546;28;20067;-72
2021/12/17 11:36:39;;;;;;;27.30;9.30;;;;;;;8.67;99.80;103835.13;5000075;28;20068;-73
2021/12/17 11:39:12;;;;;;;30.00;8.05;;;;;;;8.57;99.16;103831.84;4999978;28;20073;-73
2021/12/17 11:41:47;;;;;;;43.53;8.65;;;;;;;8.54;99.63;103825.78;5002805;28;20123;-72
2021/12/17 11:44:15;;;;;;;33.67;8.23;;;;;;;8.49;99.61;103823.31;5001651;28;20049;-73
2021/12/17 11:46:43;;;;;;;29.02;10.45;;;;;;;8.48;100.00;103823.31;5001245;28;20045;-74
2021/12/17 11:49:15;;;;;;;35.95;7.82;;;;;;;8.47;99.65;103821.56;5001422;28;20042;-73
2021/12/17 11:51:41;;;;;;;34.95;8.27;;;;;;;8.38;99.75;103820.03;4997647;28;20097;-74
2021/12/17 11:54:10;;;;;;;31.48;8.75;;;;;;;8.42;100.00;103819.06;5001256;28;20038;-72
2021/12/17 11:56:41;;;;;;;38.88;7.82;;;;;;;8.46;100.00;103831.22;4972963;28;20128;-70
2021/12/17 11:59:10;;;;;;;49.90;10.77;;;;;;;8.45;99.98;103824.25;5001399;28;20042;-71
2021/12/17 12:01:57;;;;;;;45.40;9.32;;;;;;;8.50;99.69;103829.38;4999564;28;20042;-70
2021/12/17 12:04:38;;;;;;;32.33;8.63;;;;;;;8.40;100.00;103820.88;4998675;28;20045;-72
2021/12/17 12:07:07;;;;;;;33.72;8.75;;;;;;;8.39;99.32;103824.38;5015015;28;20061;-76
2021/12/17 12:09:55;;;;;;;27.77;8.35;;;;;;;8.47;99.98;103825.09;5011786;28;20065;-71
2021/12/17 12:12:26;;;;;;;51.35;9.48;;;;;;;8.40;99.67;103823.50;5000623;28;20104;-70
2021/12/17 12:14:53;;;;;;;34.42;9.75;;;;;;;8.42;100.00;103821.69;4998086;28;20061;-71
2021/12/17 12:17:56;;;;;;;25.42;8.23;;;;;;;8.42;100.00;103816.44;5001343;28;20057;-72
2021/12/17 12:20:42;;;;;;;38.97;6.90;;;;;;;8.44;100.00;103811.19;5009008;28;20052;-72
2021/12/17 12:23:14;;;;;;;46.42;9.57;;;;;;;8.44;99.64;103819.91;4996883;28;20492;-73
2021/12/17 12:25:41;;;;;;;21.13;7.32;;;;;;;8.41;100.00;103821.72;4999242;28;20038;-72
2021/12/17 12:28:08;;;;;;;21.80;7.43;;;;;;;8.45;100.00;103819.00;4998074;28;20042;-75
2021/12/17 12:30:40;;;;;;;28.98;7.18;;;;;;;8.48;100.00;103812.84;4980485;28;20072;-75
2021/12/17 12:33:09;;;;;;;27.48;7.78;;;;;;;8.51;99.83;103818.00;4995817;28;20073;-72
2021/12/17 12:35:36;;;;;;;25.67;6.60;;;;;;;8.46;99.55;103822.47;4991046;28;20536;-70
2021/12/17 12:38:27;;;;;;;26.98;6.88;;;;;;;8.49;99.65;103820.69;5000622;28;20125;-72
2021/12/17 12:40:57;;;;;;;26.33;8.20;;;;;;;8.50;99.58;103811.91;4996699;28;20064;-72
2021/12/17 12:43:27;;;;;;;28.55;7.32;;;;;;;8.48;99.17;103813.72;4998898;28;20034;-74
2021/12/17 12:45:55;;;;;;;33.20;6.97;;;;;;;8.50;99.78;103805.81;5001384;28;20037;-73
2021/12/17 12:48:29;;;;;;;33.20;8.30;;;;;;;8.52;100.00;103812.72;4979268;28;20044;-72
2021/12/17 12:51:14;;;;;;;23.40;7.55;;;;;;;8.55;100.00;103810.06;4999602;28;20034;-73
2021/12/17 12:53:47;;;;;;;30.73;6.70;;;;;;;8.55;99.31;103799.56;4999805;28;20122;-72
2021/12/17 12:56:18;;;;;;;26.48;7.22;;;;;;;8.52;99.37;103797.00;5012675;28;20052;-72
2021/12/17 12:58:49;;;;;;;29.55;5.53;;;;;;;8.50;100.00;103796.16;4996867;28;20101;-73
2021/12/17 13:01:19;;;;;;;13.90;5.75;;;;;;;8.49;100.00;103789.25;4985607;28;20046;-73
2021/12/17 13:03:46;;;;;;;25.88;7.10;;;;;;;8.54;99.64;103803.09;4998201;28;20048;-72
2021/12/17 13:06:16;;;;;;;18.92;5.85;;;;;;;8.51;99.61;103805.75;5000721;28;20120;-72
2021/12/17 13:08:43;;;;;;;15.52;4.60;;;;;;;8.51;99.70;103803.16;4999904;28;20081;-72
2021/12/17 13:11:13;;;;;;;20.80;8.40;;;;;;;8.57;99.96;103802.16;5000743;28;20050;-72
2021/12/17 13:13:45;;;;;;;19.48;5.88;;;;;;;8.56;99.60;103785.59;4984252;28;20104;-71
2021/12/17 13:16:18;;;;;;;16.27;6.25;;;;;;;8.57;99.66;103795.16;4995004;28;20112;-69
2021/12/17 13:24:20;;;;;;;24.55;6.47;;;;;;;8.58;99.36;103799.47;4996373;28;20054;-70
2021/12/17 13:26:51;;;;;;;24.35;6.30;;;;;;;8.62;99.89;103788.06;4995886;28;20096;-72
2021/12/17 13:29:21;;;;;;;21.65;7.72;;;;;;;8.67;100.00;103793.19;4998215;28;20050;-72
2021/12/17 13:31:51;;;;;;;12.35;4.75;;;;;;;8.58;99.84;103799.47;4998077;28;20128;-73
2021/12/17 13:34:21;;;;;;;14.63;5.38;;;;;;;8.60;100.00;103789.84;4996621;28;20061;-72
2021/12/17 13:36:54;;;;;;;16.80;5.95;;;;;;;8.61;100.00;103788.94;5006846;28;20103;-71